Аэропорт: Ханты-Мансийск. Ханты-Мансийск

ICAO: USHH

METAR:
2019-07-23 18:30:00
USHH 231830Z 02002MPS CAVOK 19/15 Q1008 R06/010060 NOSIG
METAR:
2019-07-23 16:53:00
TAF USHH 231653Z 2318/2418 02003G08MPS 9999 SCT030 TEMPO 2318/2403 VRB01MPS 3100 BR FU SCT007